Time;durP1;ratioP1;P1;durP2;ratioP2;P2;SDS_P1;SDS_P2;PMS_P1;PMS_P2;Temp;Humidity;BMP_temperature;BMP_pressure;BME280_temperature;BME280_humidity;BME280_pressure;Samples;Min_cycle;Max_cycle;Signal;HPM_P1;HPM_P2
2023/08/29 00:01:04;;;;;;;3.38;2.10;;;;;;;;;;5053584;28;20048;-58
2023/08/29 00:03:32;;;;;;;2.30;1.90;;;;;;;;;;5053254;28;20139;-59
2023/08/29 00:06:04;;;;;;;2.28;1.92;;;;;;;;;;5053372;28;20041;-58
2023/08/29 00:08:30;;;;;;;2.20;1.77;;;;;;;;;;5053915;28;20455;-59
2023/08/29 00:10:59;;;;;;;3.03;2.42;;;;;;;;;;5053435;28;20024;-59
2023/08/29 00:13:25;;;;;;;2.65;2.08;;;;;;;;;;5053333;28;20025;-59
2023/08/29 00:15:52;;;;;;;2.50;2.10;;;;;;;;;;5053348;28;20045;-59
2023/08/29 00:18:21;;;;;;;2.65;1.80;;;;;;;;;;5053298;28;20459;-59
2023/08/29 00:20:47;;;;;;;2.60;2.03;;;;;;;;;;5053668;28;20025;-59
2023/08/29 00:23:13;;;;;;;2.92;2.13;;;;;;;;;;5053186;28;20071;-59
2023/08/29 00:25:39;;;;;;;2.40;1.77;;;;;;;;;;5053182;28;20471;-59
2023/08/29 00:28:06;;;;;;;2.90;2.28;;;;;;;;;;5053647;28;20022;-58
2023/08/29 00:30:36;;;;;;;2.83;2.20;;;;;;;;;;5053565;28;20108;-58
2023/08/29 00:33:02;;;;;;;3.17;2.15;;;;;;;;;;5053249;28;20104;-58
2023/08/29 00:35:28;;;;;;;3.22;2.30;;;;;;;;;;5052924;28;20061;-58
2023/08/29 00:37:54;;;;;;;2.88;2.22;;;;;;;;;;5054037;28;20064;-58
2023/08/29 00:40:20;;;;;;;4.25;2.40;;;;;;;;;;5057053;28;20470;-58
2023/08/29 00:42:47;;;;;;;2.85;1.98;;;;;;;;;;5056558;28;20025;-58
2023/08/29 00:45:13;;;;;;;3.42;2.78;;;;;;;;;;5057505;28;20033;-58
2023/08/29 00:47:40;;;;;;;4.45;2.30;;;;;;;;;;5056650;28;20107;-59
2023/08/29 00:50:07;;;;;;;3.10;2.30;;;;;;;;;;5056880;28;20163;-58
2023/08/29 00:52:33;;;;;;;2.70;2.28;;;;;;;;;;5057039;28;20174;-59
2023/08/29 00:54:59;;;;;;;2.90;2.35;;;;;;;;;;5057216;28;20455;-59
2023/08/29 00:57:25;;;;;;;3.08;2.30;;;;;;;;;;5056651;28;20025;-58
2023/08/29 00:59:51;;;;;;;2.90;2.40;;;;;;;;;;5057292;28;20112;-59
2023/08/29 01:02:17;;;;;;;3.65;2.60;;;;;;;;;;5057115;28;20392;-58
2023/08/29 01:04:42;;;;;;;3.90;2.03;;;;;;;;;;5056604;28;20117;-59
2023/08/29 01:07:09;;;;;;;3.50;2.85;;;;;;;;;;5056587;28;20025;-58
2023/08/29 01:09:35;;;;;;;2.90;2.10;;;;;;;;;;5056536;28;20462;-58
2023/08/29 01:12:17;;;;;;;3.10;2.55;;;;;;;;;;5056360;28;20098;-58
2023/08/29 01:14:48;;;;;;;3.00;2.15;;;;;;;;;;5056822;28;20120;-58
2023/08/29 01:17:20;;;;;;;3.70;2.63;;;;;;;;;;5056882;28;20036;-58
2023/08/29 01:19:51;;;;;;;3.72;2.20;;;;;;;;;;5056320;28;20029;-58
2023/08/29 01:22:25;;;;;;;5.80;2.65;;;;;;;;;;5056715;28;20546;-58
2023/08/29 01:24:58;;;;;;;2.75;2.05;;;;;;;;;;5056552;28;20033;-58
2023/08/29 01:27:25;;;;;;;3.90;2.53;;;;;;;;;;5056959;28;20108;-59
2023/08/29 01:29:51;;;;;;;6.28;2.65;;;;;;;;;;5056936;28;20056;-58
2023/08/29 01:32:17;;;;;;;4.55;2.42;;;;;;;;;;5055783;28;20135;-58
2023/08/29 01:34:44;;;;;;;2.90;2.60;;;;;;;;;;5056532;28;20021;-58
2023/08/29 01:37:10;;;;;;;2.72;2.20;;;;;;;;;;5056851;28;20060;-58
2023/08/29 01:39:36;;;;;;;3.40;2.60;;;;;;;;;;5056350;28;20371;-58
2023/08/29 01:42:02;;;;;;;2.60;2.22;;;;;;;;;;5056103;28;20028;-57
2023/08/29 01:44:28;;;;;;;2.83;2.00;;;;;;;;;;5055756;28;20033;-58
2023/08/29 01:46:54;;;;;;;3.00;2.20;;;;;;;;;;5055772;28;20342;-58
2023/08/29 01:49:20;;;;;;;2.65;2.17;;;;;;;;;;5055388;28;20075;-58
2023/08/29 01:51:46;;;;;;;4.00;2.17;;;;;;;;;;5056226;28;20117;-58
2023/08/29 01:54:12;;;;;;;2.90;2.50;;;;;;;;;;5055427;28;20060;-59
2023/08/29 01:56:39;;;;;;;2.78;2.17;;;;;;;;;;5055279;28;20075;-58
2023/08/29 01:59:06;;;;;;;4.75;2.20;;;;;;;;;;5056040;28;20021;-58
2023/08/29 02:01:32;;;;;;;2.58;2.17;;;;;;;;;;5056291;28;20028;-59
2023/08/29 02:03:58;;;;;;;4.28;2.90;;;;;;;;;;5055089;28;20032;-58
2023/08/29 02:06:24;;;;;;;3.13;2.47;;;;;;;;;;5055123;28;20470;-58
2023/08/29 02:08:50;;;;;;;3.08;2.38;;;;;;;;;;5055413;28;20029;-58
2023/08/29 02:11:16;;;;;;;2.95;2.50;;;;;;;;;;5055330;28;20025;-58
2023/08/29 02:13:42;;;;;;;4.22;2.78;;;;;;;;;;5055242;28;20029;-58
2023/08/29 02:16:08;;;;;;;3.80;2.58;;;;;;;;;;5055319;28;20032;-58
2023/08/29 02:18:34;;;;;;;3.00;2.30;;;;;;;;;;5055462;28;20032;-58
2023/08/29 02:21:00;;;;;;;2.92;2.45;;;;;;;;;;5055736;28;20029;-58
2023/08/29 02:23:26;;;;;;;3.92;2.42;;;;;;;;;;5055177;28;20090;-59
2023/08/29 02:26:05;;;;;;;3.28;2.53;;;;;;;;;;5055081;28;20029;-58
2023/08/29 02:28:37;;;;;;;4.95;2.85;;;;;;;;;;5055210;28;20359;-58
2023/08/29 02:31:04;;;;;;;2.67;2.17;;;;;;;;;;5055232;28;20021;-59
2023/08/29 02:33:31;;;;;;;5.18;2.72;;;;;;;;;;5054896;28;20113;-58
2023/08/29 02:35:58;;;;;;;3.40;2.65;;;;;;;;;;5054759;28;20053;-58
2023/08/29 02:38:23;;;;;;;3.67;2.75;;;;;;;;;;5055244;28;20033;-57
2023/08/29 02:40:49;;;;;;;3.40;2.42;;;;;;;;;;5054363;28;20031;-57
2023/08/29 02:43:15;;;;;;;3.33;2.75;;;;;;;;;;5055121;28;20036;-58
2023/08/29 02:45:41;;;;;;;4.03;2.08;;;;;;;;;;5054641;28;20040;-57
2023/08/29 02:48:07;;;;;;;3.22;2.17;;;;;;;;;;5054813;28;20166;-57
2023/08/29 02:50:34;;;;;;;4.13;2.25;;;;;;;;;;5055178;28;20035;-57
2023/08/29 02:52:59;;;;;;;2.88;2.28;;;;;;;;;;5054683;28;20024;-57
2023/08/29 02:55:25;;;;;;;4.13;2.90;;;;;;;;;;5054373;28;20074;-57
2023/08/29 02:57:51;;;;;;;4.63;3.00;;;;;;;;;;5054445;28;20021;-57
2023/08/29 03:00:18;;;;;;;3.78;2.90;;;;;;;;;;5054689;28;20104;-57
2023/08/29 03:02:44;;;;;;;4.07;2.88;;;;;;;;;;5054299;28;20090;-58
2023/08/29 03:05:10;;;;;;;4.78;3.50;;;;;;;;;;5054830;28;20029;-57
2023/08/29 03:07:36;;;;;;;3.42;2.78;;;;;;;;;;5054235;28;20106;-57
2023/08/29 03:10:02;;;;;;;4.72;3.15;;;;;;;;;;5054567;28;20028;-57
2023/08/29 03:12:28;;;;;;;3.65;2.60;;;;;;;;;;5054177;28;20029;-57
2023/08/29 03:14:54;;;;;;;3.13;2.17;;;;;;;;;;5054111;28;20363;-57
2023/08/29 03:17:22;;;;;;;5.22;3.95;;;;;;;;;;5054924;28;20104;-57
2023/08/29 03:19:48;;;;;;;3.70;3.17;;;;;;;;;;5054582;28;20074;-58
2023/08/29 03:22:14;;;;;;;3.33;2.22;;;;;;;;;;5053907;28;20038;-57
2023/08/29 03:24:40;;;;;;;5.32;2.70;;;;;;;;;;5053891;28;20056;-57
2023/08/29 03:27:06;;;;;;;5.50;3.25;;;;;;;;;;5054240;28;20021;-58
2023/08/29 03:29:32;;;;;;;3.33;2.97;;;;;;;;;;5054234;28;20036;-58
2023/08/29 03:31:58;;;;;;;4.72;3.13;;;;;;;;;;5053850;28;20025;-57
2023/08/29 03:34:24;;;;;;;3.88;3.45;;;;;;;;;;5054098;28;20028;-57
2023/08/29 03:36:50;;;;;;;4.07;3.38;;;;;;;;;;5053899;28;20151;-57
2023/08/29 03:39:16;;;;;;;3.88;3.15;;;;;;;;;;5054017;28;20025;-57
2023/08/29 03:41:41;;;;;;;4.55;2.90;;;;;;;;;;5054085;28;20056;-57
2023/08/29 03:44:07;;;;;;;3.72;3.13;;;;;;;;;;5053609;28;20454;-56
2023/08/29 03:46:33;;;;;;;3.97;3.47;;;;;;;;;;5054468;28;20414;-58
2023/08/29 03:48:59;;;;;;;3.92;3.35;;;;;;;;;;5053702;28;20060;-56
2023/08/29 03:51:25;;;;;;;3.83;3.42;;;;;;;;;;5053512;28;20067;-58
2023/08/29 03:53:51;;;;;;;5.63;3.70;;;;;;;;;;5053623;28;20029;-57
2023/08/29 03:56:18;;;;;;;3.50;2.97;;;;;;;;;;5053554;28;20363;-57
2023/08/29 03:58:45;;;;;;;5.90;3.90;;;;;;;;;;5053659;28;20117;-57
2023/08/29 04:01:11;;;;;;;4.95;4.10;;;;;;;;;;5053505;28;20021;-57
2023/08/29 04:03:37;;;;;;;4.20;3.80;;;;;;;;;;5053389;28;20528;-58
2023/08/29 04:06:03;;;;;;;3.97;3.55;;;;;;;;;;5054018;28;20083;-57
2023/08/29 04:08:29;;;;;;;4.53;3.67;;;;;;;;;;5053107;28;20489;-58
2023/08/29 04:10:55;;;;;;;4.38;3.97;;;;;;;;;;5053704;28;20025;-57
2023/08/29 04:13:21;;;;;;;5.13;4.25;;;;;;;;;;5055140;28;20033;-57
2023/08/29 04:15:47;;;;;;;4.65;4.13;;;;;;;;;;5058137;28;20082;-57
2023/08/29 04:18:13;;;;;;;5.18;4.63;;;;;;;;;;5057772;28;20029;-57
2023/08/29 04:20:39;;;;;;;5.63;5.07;;;;;;;;;;5057516;28;20090;-57
2023/08/29 04:23:07;;;;;;;5.20;4.70;;;;;;;;;;5057389;28;20117;-57
2023/08/29 04:25:36;;;;;;;4.57;4.18;;;;;;;;;;5057382;28;20040;-58
2023/08/29 04:28:02;;;;;;;5.28;4.78;;;;;;;;;;5057580;28;20025;-57
2023/08/29 04:30:28;;;;;;;5.53;5.03;;;;;;;;;;5057281;28;20032;-58
2023/08/29 04:32:54;;;;;;;5.45;4.25;;;;;;;;;;5056932;28;20036;-57
2023/08/29 04:35:20;;;;;;;6.53;5.38;;;;;;;;;;5057080;28;20024;-57
2023/08/29 04:37:47;;;;;;;5.80;5.00;;;;;;;;;;5057724;28;20025;-57
2023/08/29 04:40:13;;;;;;;5.57;5.07;;;;;;;;;;5057780;28;20127;-57
2023/08/29 04:42:40;;;;;;;6.47;5.53;;;;;;;;;;5056685;28;20498;-57
2023/08/29 04:45:07;;;;;;;6.03;5.43;;;;;;;;;;5057113;28;20082;-57
2023/08/29 04:47:33;;;;;;;6.43;5.75;;;;;;;;;;5056948;28;20035;-58
2023/08/29 04:50:00;;;;;;;5.15;4.47;;;;;;;;;;5057552;28;20027;-57
2023/08/29 04:52:26;;;;;;;7.85;5.13;;;;;;;;;;5057446;28;20025;-58
2023/08/29 04:54:52;;;;;;;6.93;6.13;;;;;;;;;;5056712;28;20481;-57
2023/08/29 04:57:19;;;;;;;6.28;5.68;;;;;;;;;;5056820;28;20033;-56
2023/08/29 04:59:45;;;;;;;6.85;6.25;;;;;;;;;;5057574;28;20033;-57
2023/08/29 05:02:11;;;;;;;6.88;6.20;;;;;;;;;;5057555;28;20363;-58
2023/08/29 05:04:37;;;;;;;8.40;6.00;;;;;;;;;;5056570;28;20067;-57
2023/08/29 05:07:03;;;;;;;7.35;6.65;;;;;;;;;;5056676;28;20035;-57
2023/08/29 05:09:29;;;;;;;7.63;6.50;;;;;;;;;;5056345;28;20116;-57
2023/08/29 05:11:55;;;;;;;6.82;6.22;;;;;;;;;;5056609;28;20053;-57
2023/08/29 05:14:22;;;;;;;9.13;6.35;;;;;;;;;;5057335;28;20503;-57
2023/08/29 05:16:47;;;;;;;6.80;6.10;;;;;;;;;;5056555;28;20029;-58
2023/08/29 05:19:13;;;;;;;6.82;6.15;;;;;;;;;;5056961;28;20182;-57
2023/08/29 05:21:39;;;;;;;6.25;5.68;;;;;;;;;;5056298;28;20025;-57
2023/08/29 05:24:06;;;;;;;7.10;6.43;;;;;;;;;;5055770;28;20112;-57
2023/08/29 05:26:32;;;;;;;7.57;6.47;;;;;;;;;;5055923;28;20029;-57
2023/08/29 05:28:58;;;;;;;7.35;6.50;;;;;;;;;;5056799;28;20358;-57
2023/08/29 05:31:25;;;;;;;7.05;6.30;;;;;;;;;;5055911;28;20106;-58
2023/08/29 05:33:51;;;;;;;6.22;5.63;;;;;;;;;;5056145;28;20087;-58
2023/08/29 05:36:16;;;;;;;6.72;6.13;;;;;;;;;;5056038;28;20483;-57
2023/08/29 05:38:42;;;;;;;7.40;6.53;;;;;;;;;;5056026;28;20059;-57
2023/08/29 05:41:08;;;;;;;7.28;5.70;;;;;;;;;;5056552;28;20025;-57
2023/08/29 05:43:34;;;;;;;7.47;6.55;;;;;;;;;;5055782;28;20455;-56
2023/08/29 05:46:01;;;;;;;8.13;6.78;;;;;;;;;;5055969;28;20036;-57
2023/08/29 05:48:28;;;;;;;6.50;5.90;;;;;;;;;;5056345;28;20036;-57
2023/08/29 05:50:54;;;;;;;7.35;6.65;;;;;;;;;;5055865;28;20025;-57
2023/08/29 05:53:20;;;;;;;6.88;6.05;;;;;;;;;;5056059;28;20036;-57
2023/08/29 05:55:47;;;;;;;6.35;5.70;;;;;;;;;;5056141;28;20332;-58
2023/08/29 05:58:13;;;;;;;7.85;6.32;;;;;;;;;;5056218;28;20028;-58
2023/08/29 06:00:39;;;;;;;7.45;6.35;;;;;;;;;;5056232;28;20490;-57
2023/08/29 06:03:07;;;;;;;5.90;5.40;;;;;;;;;;5055538;28;20036;-57
2023/08/29 06:05:33;;;;;;;6.43;5.82;;;;;;;;;;5055461;28;20029;-57
2023/08/29 06:08:02;;;;;;;7.82;7.03;;;;;;;;;;5055743;28;20082;-57
2023/08/29 06:10:28;;;;;;;8.13;7.32;;;;;;;;;;5055067;28;20029;-57
2023/08/29 06:12:54;;;;;;;6.60;5.93;;;;;;;;;;5055285;28;20110;-57
2023/08/29 06:15:22;;;;;;;6.30;5.70;;;;;;;;;;5055364;28;20021;-57
2023/08/29 06:17:48;;;;;;;6.88;6.20;;;;;;;;;;5055270;28;20094;-58
2023/08/29 06:20:14;;;;;;;6.47;5.88;;;;;;;;;;5055806;28;20465;-57
2023/08/29 06:22:40;;;;;;;7.32;6.13;;;;;;;;;;5055073;28;20116;-57
2023/08/29 06:25:06;;;;;;;7.40;6.47;;;;;;;;;;5054936;28;20090;-58
2023/08/29 06:27:33;;;;;;;7.60;6.88;;;;;;;;;;5055127;28;20025;-58
2023/08/29 06:29:59;;;;;;;7.20;6.15;;;;;;;;;;5055572;28;20029;-57
2023/08/29 06:32:25;;;;;;;7.90;7.10;;;;;;;;;;5054720;28;20104;-58
2023/08/29 06:34:51;;;;;;;7.28;6.68;;;;;;;;;;5055185;28;20029;-58
2023/08/29 06:37:17;;;;;;;7.63;6.88;;;;;;;;;;5054978;28;20048;-58
2023/08/29 06:39:43;;;;;;;6.85;5.80;;;;;;;;;;5055408;28;20148;-58
2023/08/29 06:42:09;;;;;;;7.70;6.97;;;;;;;;;;5054692;28;20033;-58
2023/08/29 06:44:35;;;;;;;7.40;6.70;;;;;;;;;;5055028;28;20108;-58
2023/08/29 06:47:01;;;;;;;6.95;6.35;;;;;;;;;;5054775;28;20374;-58
2023/08/29 06:49:27;;;;;;;7.65;6.95;;;;;;;;;;5055266;28;20029;-58
2023/08/29 06:51:53;;;;;;;13.27;8.05;;;;;;;;;;5054600;28;20482;-58
2023/08/29 06:54:19;;;;;;;8.27;7.53;;;;;;;;;;5055056;28;20059;-58
2023/08/29 06:56:45;;;;;;;8.82;8.02;;;;;;;;;;5054604;28;20021;-58
2023/08/29 06:59:11;;;;;;;8.73;7.82;;;;;;;;;;5054875;28;20363;-59
2023/08/29 07:01:37;;;;;;;7.85;6.88;;;;;;;;;;5055204;28;20034;-59
2023/08/29 07:04:03;;;;;;;8.85;7.95;;;;;;;;;;5054358;28;20120;-58
2023/08/29 07:06:30;;;;;;;9.13;8.02;;;;;;;;;;5054389;28;20029;-58
2023/08/29 07:08:56;;;;;;;8.52;7.72;;;;;;;;;;5055218;28;20021;-58
2023/08/29 07:11:22;;;;;;;9.05;8.18;;;;;;;;;;5054317;28;20029;-58
2023/08/29 07:13:49;;;;;;;8.70;7.80;;;;;;;;;;5054254;28;20507;-58
2023/08/29 07:16:15;;;;;;;10.60;9.55;;;;;;;;;;5054682;28;20079;-58
2023/08/29 07:18:41;;;;;;;11.13;10.02;;;;;;;;;;5054148;28;20036;-58
2023/08/29 07:21:07;;;;;;;9.27;8.43;;;;;;;;;;5054405;28;20095;-58
2023/08/29 07:23:33;;;;;;;8.55;7.75;;;;;;;;;;5053898;28;20037;-58
2023/08/29 07:25:59;;;;;;;10.57;8.77;;;;;;;;;;5054245;28;20459;-58
2023/08/29 07:28:25;;;;;;;9.77;8.88;;;;;;;;;;5053972;28;20119;-58
2023/08/29 07:30:51;;;;;;;10.98;10.02;;;;;;;;;;5053965;28;20096;-58
2023/08/29 07:33:18;;;;;;;11.90;9.88;;;;;;;;;;5053994;28;20025;-58
2023/08/29 07:35:44;;;;;;;9.48;8.57;;;;;;;;;;5054115;28;20056;-58
2023/08/29 07:38:10;;;;;;;10.52;9.55;;;;;;;;;;5054477;28;20036;-58
2023/08/29 07:40:36;;;;;;;9.88;8.90;;;;;;;;;;5054345;28;20032;-58
2023/08/29 07:43:04;;;;;;;8.10;7.38;;;;;;;;;;5053690;28;20371;-58
2023/08/29 07:45:30;;;;;;;9.88;8.98;;;;;;;;;;5053445;28;20546;-58
2023/08/29 07:47:56;;;;;;;10.52;9.40;;;;;;;;;;5052974;28;20108;-59
2023/08/29 07:50:22;;;;;;;9.43;8.55;;;;;;;;;;5053735;28;20052;-58
2023/08/29 07:52:48;;;;;;;9.00;8.10;;;;;;;;;;5054447;28;20033;-58
2023/08/29 07:55:14;;;;;;;8.93;8.07;;;;;;;;;;5054067;28;20031;-58
2023/08/29 07:57:40;;;;;;;8.50;7.80;;;;;;;;;;5053910;28;20027;-58
2023/08/29 08:00:09;;;;;;;9.18;8.38;;;;;;;;;;5053820;28;20025;-58
2023/08/29 08:02:38;;;;;;;9.60;8.60;;;;;;;;;;5053454;28;20112;-58
2023/08/29 08:05:05;;;;;;;8.57;7.70;;;;;;;;;;5053439;28;20117;-58
2023/08/29 08:07:31;;;;;;;11.07;7.65;;;;;;;;;;5053767;28;20021;-58
2023/08/29 08:09:57;;;;;;;9.02;8.23;;;;;;;;;;5054026;28;20083;-58
2023/08/29 08:12:23;;;;;;;10.57;8.70;;;;;;;;;;5054049;28;20033;-58
2023/08/29 08:14:51;;;;;;;8.70;7.90;;;;;;;;;;5053444;28;20075;-58
2023/08/29 08:17:17;;;;;;;9.85;8.98;;;;;;;;;;5054187;28;20083;-59
2023/08/29 08:19:43;;;;;;;9.07;8.15;;;;;;;;;;5053482;28;20025;-58
2023/08/29 08:22:10;;;;;;;9.55;8.45;;;;;;;;;;5053238;28;20028;-59
2023/08/29 08:24:36;;;;;;;9.55;7.97;;;;;;;;;;5052873;28;20455;-58
2023/08/29 08:27:01;;;;;;;10.32;9.43;;;;;;;;;;5053007;28;20059;-59
2023/08/29 08:29:27;;;;;;;9.43;8.57;;;;;;;;;;5053651;28;20057;-58
2023/08/29 08:31:53;;;;;;;9.70;8.80;;;;;;;;;;5053200;28;20032;-58
2023/08/29 08:34:19;;;;;;;8.02;7.28;;;;;;;;;;5053261;28;20025;-59
2023/08/29 08:36:45;;;;;;;9.18;8.27;;;;;;;;;;5053195;28;20052;-58
2023/08/29 08:39:11;;;;;;;9.85;8.10;;;;;;;;;;5053697;28;20029;-58
2023/08/29 08:41:38;;;;;;;8.85;7.68;;;;;;;;;;5052800;28;20382;-58
2023/08/29 08:44:05;;;;;;;8.02;7.25;;;;;;;;;;5053053;28;20091;-59
2023/08/29 08:46:32;;;;;;;9.15;8.32;;;;;;;;;;5053677;28;20056;-58
2023/08/29 08:48:58;;;;;;;8.95;8.13;;;;;;;;;;5053700;28;20021;-58
2023/08/29 08:51:25;;;;;;;9.00;8.20;;;;;;;;;;5053034;28;20150;-59
2023/08/29 08:53:53;;;;;;;9.23;8.32;;;;;;;;;;5053002;28;20064;-58
2023/08/29 08:56:19;;;;;;;9.18;8.07;;;;;;;;;;5053302;28;20032;-58
2023/08/29 08:58:45;;;;;;;9.02;8.23;;;;;;;;;;5054168;28;20036;-58
2023/08/29 09:01:12;;;;;;;9.60;8.75;;;;;;;;;;5056788;28;20029;-59
2023/08/29 09:03:40;;;;;;;11.45;7.85;;;;;;;;;;5056581;28;20025;-59
2023/08/29 09:06:07;;;;;;;9.73;8.82;;;;;;;;;;5056642;28;20082;-58
2023/08/29 09:08:33;;;;;;;9.55;8.45;;;;;;;;;;5057114;28;20029;-58
2023/08/29 09:11:03;;;;;;;9.00;8.20;;;;;;;;;;5056954;28;20031;-58
2023/08/29 09:13:29;;;;;;;9.63;8.70;;;;;;;;;;5056763;28;20036;-58
2023/08/29 09:15:55;;;;;;;8.73;7.90;;;;;;;;;;5057232;28;20029;-58
2023/08/29 09:18:25;;;;;;;9.40;8.48;;;;;;;;;;5056622;28;20451;-58
2023/08/29 09:20:53;;;;;;;10.90;9.90;;;;;;;;;;5056515;28;20058;-58
2023/08/29 09:23:26;;;;;;;8.98;8.00;;;;;;;;;;5056752;28;20033;-58
2023/08/29 09:25:55;;;;;;;8.60;7.90;;;;;;;;;;5056240;28;20052;-59
2023/08/29 09:28:22;;;;;;;10.15;7.97;;;;;;;;;;5056169;28;20052;-58
2023/08/29 09:30:49;;;;;;;8.10;7.40;;;;;;;;;;5056225;28;20088;-59
2023/08/29 09:33:19;;;;;;;8.55;7.75;;;;;;;;;;5056108;28;20106;-58
2023/08/29 09:35:45;;;;;;;8.93;8.17;;;;;;;;;;5056552;28;20064;-58
2023/08/29 09:38:11;;;;;;;7.97;7.28;;;;;;;;;;5056843;28;20450;-58
2023/08/29 09:40:47;;;;;;;10.38;9.45;;;;;;;;;;5056068;28;20074;-61
2023/08/29 09:43:14;;;;;;;10.15;9.20;;;;;;;;;;5055783;28;20064;-60
2023/08/29 09:45:40;;;;;;;9.50;8.60;;;;;;;;;;5056421;28;20374;-59
2023/08/29 09:48:07;;;;;;;9.95;9.05;;;;;;;;;;5055539;28;20029;-59
2023/08/29 09:50:34;;;;;;;9.52;8.63;;;;;;;;;;5056380;28;20375;-59
2023/08/29 09:53:00;;;;;;;10.05;9.00;;;;;;;;;;5056387;28;20028;-59
2023/08/29 09:55:27;;;;;;;8.90;8.10;;;;;;;;;;5055720;28;20039;-59
2023/08/29 09:57:53;;;;;;;8.85;8.15;;;;;;;;;;5055630;28;20534;-59
2023/08/29 10:00:22;;;;;;;10.35;9.30;;;;;;;;;;5056006;28;20048;-59
2023/08/29 10:02:50;;;;;;;9.35;8.45;;;;;;;;;;5055678;28;20029;-59
2023/08/29 10:05:20;;;;;;;13.38;9.57;;;;;;;;;;5055561;28;20025;-59
2023/08/29 10:07:47;;;;;;;10.93;9.93;;;;;;;;;;5055428;28;20029;-59
2023/08/29 10:10:13;;;;;;;10.98;10.00;;;;;;;;;;5055435;28;20029;-59
2023/08/29 10:12:39;;;;;;;10.45;9.45;;;;;;;;;;5056039;28;20108;-59
2023/08/29 10:15:06;;;;;;;10.30;9.43;;;;;;;;;;5055341;28;20040;-59
2023/08/29 10:17:35;;;;;;;10.73;9.65;;;;;;;;;;5055807;28;20028;-59
2023/08/29 10:20:09;;;;;;;9.55;8.65;;;;;;;;;;5055480;28;20021;-59
2023/08/29 10:22:35;;;;;;;11.73;10.70;;;;;;;;;;5055527;28;20414;-59
2023/08/29 10:25:02;;;;;;;11.02;9.98;;;;;;;;;;5055222;28;20420;-59
2023/08/29 10:27:28;;;;;;;11.88;10.85;;;;;;;;;;5055152;28;20033;-59
2023/08/29 10:29:55;;;;;;;12.02;10.93;;;;;;;;;;5055632;28;20021;-59
2023/08/29 10:32:21;;;;;;;12.10;11.00;;;;;;;;;;5055099;28;20029;-59
2023/08/29 10:34:49;;;;;;;12.13;11.10;;;;;;;;;;5055038;28;20036;-59
2023/08/29 10:37:18;;;;;;;13.15;11.85;;;;;;;;;;5055521;28;20045;-59
2023/08/29 10:39:45;;;;;;;11.95;10.85;;;;;;;;;;5055316;28;20451;-59
2023/08/29 10:42:13;;;;;;;13.15;12.05;;;;;;;;;;5054850;28;20419;-59
2023/08/29 10:44:42;;;;;;;11.18;10.20;;;;;;;;;;5054673;28;20039;-59
2023/08/29 10:47:20;;;;;;;12.38;11.25;;;;;;;;;;5054806;28;20466;-59
2023/08/29 10:49:47;;;;;;;13.25;12.15;;;;;;;;;;5055067;28;20395;-59
2023/08/29 10:52:14;;;;;;;12.82;11.52;;;;;;;;;;5055194;28;20029;-59
2023/08/29 10:54:40;;;;;;;11.45;10.45;;;;;;;;;;5055128;28;20021;-59
2023/08/29 10:57:26;;;;;;;12.18;10.88;;;;;;;;;;5054280;28;20451;-59
2023/08/29 10:59:52;;;;;;;11.15;10.02;;;;;;;;;;5054805;28;20417;-59
2023/08/29 11:02:22;;;;;;;11.93;10.75;;;;;;;;;;5055004;28;20025;-59
2023/08/29 11:04:50;;;;;;;10.82;9.82;;;;;;;;;;5054353;28;20063;-59
2023/08/29 11:07:25;;;;;;;11.25;8.88;;;;;;;;;;5054601;28;20025;-59
2023/08/29 11:10:10;;;;;;;10.80;9.80;;;;;;;;;;5055216;28;20344;-59
2023/08/29 11:12:36;;;;;;;9.65;8.77;;;;;;;;;;5053971;28;20025;-59
2023/08/29 11:15:02;;;;;;;9.77;8.88;;;;;;;;;;5054254;28;20032;-59
2023/08/29 11:17:28;;;;;;;10.23;9.35;;;;;;;;;;5054216;28;20029;-59
2023/08/29 11:19:55;;;;;;;11.88;10.88;;;;;;;;;;5054290;28;20374;-59
2023/08/29 11:22:22;;;;;;;10.57;9.63;;;;;;;;;;5054617;28;20082;-59
2023/08/29 11:24:54;;;;;;;11.07;10.05;;;;;;;;;;5053671;28;20029;-59
2023/08/29 11:27:20;;;;;;;10.27;9.38;;;;;;;;;;5054594;28;20359;-59
2023/08/29 11:29:46;;;;;;;11.05;10.13;;;;;;;;;;5054521;28;20025;-59
2023/08/29 11:32:12;;;;;;;11.38;10.23;;;;;;;;;;5054753;28;20040;-59
2023/08/29 11:34:38;;;;;;;10.50;9.50;;;;;;;;;;5053621;28;20044;-59
2023/08/29 11:37:04;;;;;;;10.00;9.10;;;;;;;;;;5054458;28;20049;-59
2023/08/29 11:39:30;;;;;;;10.23;9.32;;;;;;;;;;5054428;28;20024;-58
2023/08/29 11:41:56;;;;;;;10.05;9.13;;;;;;;;;;5053815;28;20195;-59
2023/08/29 11:44:27;;;;;;;11.00;10.00;;;;;;;;;;5053714;28;20522;-59
2023/08/29 11:46:56;;;;;;;10.95;10.00;;;;;;;;;;5054303;28;20064;-59
2023/08/29 11:49:22;;;;;;;9.45;8.55;;;;;;;;;;5054162;28;20021;-56
2023/08/29 11:51:48;;;;;;;12.27;11.07;;;;;;;;;;5054336;28;20447;-57
2023/08/29 11:54:33;;;;;;;11.85;10.68;;;;;;;;;;5053697;28;20043;-58
2023/08/29 11:56:59;;;;;;;12.18;11.10;;;;;;;;;;5054124;28;20028;-58
2023/08/29 11:59:25;;;;;;;12.98;11.80;;;;;;;;;;5053564;28;20025;-57
2023/08/29 12:01:51;;;;;;;12.00;10.88;;;;;;;;;;5053236;28;20094;-57
2023/08/29 12:04:17;;;;;;;12.20;11.00;;;;;;;;;;5053492;28;20029;-58
2023/08/29 12:06:43;;;;;;;12.98;11.80;;;;;;;;;;5053782;28;20458;-58
2023/08/29 12:09:21;;;;;;;12.15;11.15;;;;;;;;;;5054270;28;20018;-59
2023/08/29 12:11:46;;;;;;;12.20;11.20;;;;;;;;;;5053780;28;20017;-59
2023/08/29 12:14:12;;;;;;;12.63;11.45;;;;;;;;;;5053195;28;20079;-59
2023/08/29 12:16:39;;;;;;;11.05;10.05;;;;;;;;;;5053689;28;20021;-59
2023/08/29 12:19:13;;;;;;;11.15;10.05;;;;;;;;;;5053650;28;20455;-59
2023/08/29 12:21:39;;;;;;;10.80;9.63;;;;;;;;;;5053431;28;20031;-59
2023/08/29 12:24:10;;;;;;;10.52;9.52;;;;;;;;;;5053249;28;20371;-59
2023/08/29 12:26:36;;;;;;;11.55;10.38;;;;;;;;;;5053331;28;20116;-59
2023/08/29 12:29:02;;;;;;;11.45;10.32;;;;;;;;;;5053693;28;20134;-59
2023/08/29 12:31:28;;;;;;;11.77;10.43;;;;;;;;;;5053276;28;20040;-59
2023/08/29 12:33:53;;;;;;;11.00;10.07;;;;;;;;;;5054437;28;20458;-59
2023/08/29 12:36:19;;;;;;;11.98;10.88;;;;;;;;;;5056949;28;20037;-59
2023/08/29 12:38:45;;;;;;;11.60;10.50;;;;;;;;;;5057769;28;20027;-60
2023/08/29 12:41:15;;;;;;;10.07;9.15;;;;;;;;;;5057644;28;20068;-59
2023/08/29 12:43:41;;;;;;;11.27;10.23;;;;;;;;;;5056960;28;20037;-59
2023/08/29 12:46:08;;;;;;;11.90;9.90;;;;;;;;;;5057002;28;20025;-59
2023/08/29 12:48:34;;;;;;;9.35;8.35;;;;;;;;;;5057002;28;20028;-59
2023/08/29 12:51:00;;;;;;;10.57;9.63;;;;;;;;;;5056716;28;20017;-59
2023/08/29 12:53:27;;;;;;;10.90;9.52;;;;;;;;;;5056864;28;20052;-59
2023/08/29 12:55:53;;;;;;;10.05;9.13;;;;;;;;;;5057394;28;20040;-59
2023/08/29 12:58:19;;;;;;;10.55;9.55;;;;;;;;;;5056559;28;20375;-59
2023/08/29 13:00:45;;;;;;;9.98;9.07;;;;;;;;;;5057170;28;20025;-59
2023/08/29 13:03:11;;;;;;;10.93;9.93;;;;;;;;;;5056651;28;20031;-60
2023/08/29 13:05:38;;;;;;;10.73;9.63;;;;;;;;;;5056701;28;20044;-59
2023/08/29 13:08:04;;;;;;;9.35;8.45;;;;;;;;;;5057369;28;20463;-59
2023/08/29 13:10:30;;;;;;;8.82;7.97;;;;;;;;;;5057013;28;20017;-59
2023/08/29 13:12:56;;;;;;;8.27;7.15;;;;;;;;;;5056599;28;20402;-59
2023/08/29 13:15:22;;;;;;;7.65;6.93;;;;;;;;;;5056208;28;20024;-59
2023/08/29 13:17:49;;;;;;;8.77;8.00;;;;;;;;;;5056794;28;20099;-59
2023/08/29 13:20:16;;;;;;;8.25;7.55;;;;;;;;;;5057045;28;20025;-59
2023/08/29 13:22:42;;;;;;;8.38;7.57;;;;;;;;;;5056327;28;20029;-59
2023/08/29 13:25:10;;;;;;;8.23;7.50;;;;;;;;;;5056296;28;20419;-59
2023/08/29 13:27:36;;;;;;;9.50;8.60;;;;;;;;;;5056253;28;20036;-59
2023/08/29 13:30:04;;;;;;;9.02;8.18;;;;;;;;;;5056349;28;20025;-59
2023/08/29 13:32:30;;;;;;;10.75;9.82;;;;;;;;;;5056176;28;20029;-59
2023/08/29 13:34:57;;;;;;;10.63;9.52;;;;;;;;;;5057007;28;20405;-59
2023/08/29 13:37:23;;;;;;;9.15;8.35;;;;;;;;;;5056731;28;20052;-59
2023/08/29 13:39:58;;;;;;;10.65;9.32;;;;;;;;;;5056908;28;20029;-59
2023/08/29 13:42:25;;;;;;;10.07;9.07;;;;;;;;;;5056117;28;20021;-59
2023/08/29 13:44:57;;;;;;;8.77;7.97;;;;;;;;;;5055395;28;20541;-59
2023/08/29 13:47:23;;;;;;;8.93;8.10;;;;;;;;;;5055305;28;20029;-59
2023/08/29 13:49:49;;;;;;;8.38;7.57;;;;;;;;;;5055969;28;20119;-59
2023/08/29 13:52:15;;;;;;;6.78;6.10;;;;;;;;;;5056390;28;20056;-58
2023/08/29 13:54:41;;;;;;;6.50;5.82;;;;;;;;;;5055996;28;20116;-59
2023/08/29 13:57:07;;;;;;;8.20;5.88;;;;;;;;;;5056049;28;20486;-59
2023/08/29 13:59:33;;;;;;;6.10;5.60;;;;;;;;;;5056033;28;20032;-59
2023/08/29 14:01:59;;;;;;;7.03;6.32;;;;;;;;;;5055718;28;20021;-59
2023/08/29 14:04:25;;;;;;;7.68;6.97;;;;;;;;;;5055520;28;20419;-59
2023/08/29 14:06:51;;;;;;;7.20;6.60;;;;;;;;;;5055435;28;20493;-59
2023/08/29 14:09:17;;;;;;;7.80;7.10;;;;;;;;;;5055935;28;20020;-59
2023/08/29 14:11:43;;;;;;;7.82;7.03;;;;;;;;;;5055215;28;20148;-59
2023/08/29 14:14:09;;;;;;;7.40;6.68;;;;;;;;;;5055120;28;20017;-59
2023/08/29 14:16:35;;;;;;;6.95;6.35;;;;;;;;;;5055390;28;20032;-59
2023/08/29 14:19:01;;;;;;;7.18;6.47;;;;;;;;;;5055936;28;20017;-59
2023/08/29 14:21:27;;;;;;;6.72;6.13;;;;;;;;;;5055976;28;20017;-59
2023/08/29 14:23:53;;;;;;;7.13;6.53;;;;;;;;;;5055216;28;20055;-58
2023/08/29 14:26:19;;;;;;;7.70;6.47;;;;;;;;;;5055941;28;20031;-59
2023/08/29 14:28:45;;;;;;;7.72;7.03;;;;;;;;;;5055603;28;20025;-59
2023/08/29 14:31:11;;;;;;;6.82;6.22;;;;;;;;;;5055102;28;20348;-59
2023/08/29 14:33:37;;;;;;;5.72;5.22;;;;;;;;;;5055830;28;20048;-58
2023/08/29 14:36:03;;;;;;;7.30;6.68;;;;;;;;;;5054980;28;20147;-59